Time;durP1;ratioP1;P1;durP2;ratioP2;P2;SDS_P1;SDS_P2;PMS_P1;PMS_P2;Temp;Humidity;BMP_temperature;BMP_pressure;BME280_temperature;BME280_humidity;BME280_pressure;Samples;Min_cycle;Max_cycle;Signal;HPM_P1;HPM_P2
2021/09/17 00:00:12;;;;;;;19.02;10.13;;;;;;;14.96;100.00;98916.77;1650439;86;21446;-72
2021/09/17 00:02:42;;;;;;;21.25;10.40;;;;;;;14.93;100.00;98918.19;1652089;86;21968;-74
2021/09/17 00:05:11;;;;;;;25.62;9.90;;;;;;;14.91;100.00;98916.03;1654244;86;21348;-73
2021/09/17 00:07:42;;;;;;;19.57;9.85;;;;;;;14.88;100.00;98913.91;1653226;86;20988;-75
2021/09/17 00:10:12;;;;;;;21.95;9.48;;;;;;;14.90;100.00;98909.43;1651038;86;20908;-74
2021/09/17 00:12:41;;;;;;;13.35;9.48;;;;;;;14.90;100.00;98904.12;1650387;85;21431;-71
2021/09/17 00:15:11;;;;;;;16.25;9.08;;;;;;;14.94;100.00;98901.80;1651071;86;21415;-71
2021/09/17 00:17:39;;;;;;;17.40;9.63;;;;;;;14.98;100.00;98901.66;1657070;86;21440;-73
2021/09/17 00:20:09;;;;;;;24.20;9.25;;;;;;;15.03;100.00;98895.77;1655231;86;21430;-73
2021/09/17 00:22:40;;;;;;;13.60;9.05;;;;;;;15.08;100.00;98896.50;1655756;86;21320;-72
2021/09/17 00:25:11;;;;;;;16.80;9.03;;;;;;;15.08;100.00;98892.52;1655771;86;21003;-74
2021/09/17 00:27:39;;;;;;;18.27;8.80;;;;;;;15.07;100.00;98892.56;1653740;86;21116;-72
2021/09/17 00:30:08;;;;;;;16.65;9.40;;;;;;;15.04;100.00;98888.20;1652746;85;20872;-72
2021/09/17 00:32:38;;;;;;;16.80;9.40;;;;;;;15.01;100.00;98879.45;1652922;86;20976;-72
2021/09/17 00:35:08;;;;;;;15.50;8.73;;;;;;;14.96;100.00;98880.05;1651189;86;20984;-72
2021/09/17 00:37:36;;;;;;;13.20;8.70;;;;;;;14.92;100.00;98875.73;1649977;86;21395;-71
2021/09/17 00:40:13;;;;;;;13.55;8.28;;;;;;;14.83;100.00;98873.33;1647052;86;21499;-70
2021/09/17 00:42:43;;;;;;;21.93;8.55;;;;;;;14.79;100.00;98871.22;1653065;85;20891;-72
2021/09/17 00:45:15;;;;;;;15.72;8.83;;;;;;;14.75;100.00;98866.91;1648211;86;21111;-70
2021/09/17 00:47:46;;;;;;;14.25;8.68;;;;;;;14.75;100.00;98876.20;1650953;86;21036;-71
2021/09/17 00:50:20;;;;;;;14.13;8.38;;;;;;;14.70;100.00;98868.36;1650650;86;20948;-71
2021/09/17 00:52:49;;;;;;;17.27;8.33;;;;;;;14.66;100.00;98861.39;1650548;86;21411;-72
2021/09/17 00:55:19;;;;;;;13.10;7.97;;;;;;;14.65;100.00;98857.42;1653059;85;21427;-71
2021/09/17 00:57:50;;;;;;;13.78;7.90;;;;;;;14.62;100.00;98862.36;1650027;86;21456;-71
2021/09/17 01:00:19;;;;;;;14.15;7.92;;;;;;;14.63;100.00;98856.59;1651994;85;20880;-72
2021/09/17 01:02:47;;;;;;;19.90;8.45;;;;;;;14.63;100.00;98850.83;1653227;86;20877;-73
2021/09/17 01:05:16;;;;;;;16.07;7.78;;;;;;;14.60;100.00;98848.25;1654569;86;21736;-72
2021/09/17 01:07:45;;;;;;;20.80;8.78;;;;;;;14.58;100.00;98851.41;1656586;86;20857;-73
2021/09/17 01:10:13;;;;;;;30.43;9.60;;;;;;;14.51;100.00;98847.63;1657294;86;20888;-73
2021/09/17 01:12:43;;;;;;;15.83;7.78;;;;;;;14.44;100.00;98853.11;1623854;85;21459;-73
2021/09/17 01:15:13;;;;;;;17.37;8.15;;;;;;;14.43;100.00;98846.52;1652114;86;20884;-73
2021/09/17 01:17:43;;;;;;;17.23;8.48;;;;;;;14.44;100.00;98841.16;1664217;85;21371;-73
2021/09/17 01:20:16;;;;;;;15.08;8.18;;;;;;;14.39;100.00;98840.38;1649620;86;20955;-73
2021/09/17 01:22:45;;;;;;;29.48;8.20;;;;;;;14.32;100.00;98831.30;1654430;85;21347;-73
2021/09/17 01:25:17;;;;;;;20.08;8.63;;;;;;;14.26;100.00;98831.45;1650872;86;21371;-73
2021/09/17 01:27:48;;;;;;;10.82;7.67;;;;;;;14.25;100.00;98829.26;1658014;86;21462;-72
2021/09/17 01:30:17;;;;;;;13.20;7.45;;;;;;;14.25;100.00;98835.02;1648394;84;21122;-72
2021/09/17 01:32:46;;;;;;;17.62;7.90;;;;;;;14.21;100.00;98823.62;1661683;85;21502;-74
2021/09/17 01:35:16;;;;;;;11.93;7.87;;;;;;;14.24;100.00;98824.86;1662664;85;20883;-75
2021/09/17 01:37:46;;;;;;;17.67;8.25;;;;;;;14.24;100.00;98823.54;1662810;85;21430;-73
2021/09/17 01:40:15;;;;;;;15.72;8.00;;;;;;;14.16;100.00;98813.09;1662634;85;20966;-73
2021/09/17 01:42:44;;;;;;;16.80;7.85;;;;;;;14.09;100.00;98814.16;1652388;86;21102;-75
2021/09/17 01:45:12;;;;;;;14.90;8.23;;;;;;;14.07;100.00;98812.01;1647803;85;20892;-72
2021/09/17 01:47:44;;;;;;;13.83;7.55;;;;;;;14.05;100.00;98803.67;1630482;87;21598;-73
2021/09/17 01:50:14;;;;;;;14.85;7.70;;;;;;;13.98;100.00;98802.09;1650251;85;20971;-73
2021/09/17 01:52:43;;;;;;;14.65;7.92;;;;;;;13.90;100.00;98798.31;1648250;85;20936;-72
2021/09/17 01:55:13;;;;;;;18.27;8.10;;;;;;;13.81;100.00;98788.80;1642838;85;21454;-71
2021/09/17 01:57:43;;;;;;;16.80;7.05;;;;;;;13.74;100.00;98787.22;1636511;86;21442;-72
2021/09/17 02:00:20;;;;;;;14.93;7.05;;;;;;;13.69;100.00;98778.47;1635620;86;20944;-72
2021/09/17 02:02:50;;;;;;;10.25;7.08;;;;;;;13.71;100.00;98784.61;1641397;86;21431;-72
2021/09/17 02:05:20;;;;;;;12.50;7.08;;;;;;;13.71;100.00;98776.66;1652542;86;21463;-72
2021/09/17 02:07:49;;;;;;;15.23;7.25;;;;;;;13.73;100.00;98780.17;1653152;86;21972;-72
2021/09/17 02:10:21;;;;;;;15.13;7.42;;;;;;;13.75;100.00;98773.51;1650105;86;21456;-73
2021/09/17 02:12:46;;;;;;;19.50;7.72;;;;;;;13.75;100.00;98776.16;1644382;86;21463;-72
2021/09/17 02:15:18;;;;;;;14.55;7.00;;;;;;;13.70;100.00;98775.37;1651632;85;21428;-72
2021/09/17 02:17:46;;;;;;;11.53;6.78;;;;;;;13.68;100.00;98760.83;1644581;86;20964;-73
2021/09/17 02:20:16;;;;;;;11.73;7.05;;;;;;;13.65;100.00;98766.66;1644007;86;21403;-73
2021/09/17 02:22:47;;;;;;;14.85;6.95;;;;;;;13.64;100.00;98756.52;1652846;85;21436;-72
2021/09/17 02:25:28;;;;;;;44.65;9.20;;;;;;;13.68;100.00;98760.83;1647955;86;20889;-71
2021/09/17 02:27:57;;;;;;;16.90;7.17;;;;;;;13.71;100.00;98762.08;1650817;85;20963;-68
2021/09/17 02:30:32;;;;;;;13.38;7.45;;;;;;;13.74;100.00;98758.52;1649591;85;20919;-71
2021/09/17 02:33:00;;;;;;;;;;;;;;;13.71;100.00;98748.82;1648432;86;21567;-70
2021/09/17 02:35:30;;;;;;;13.45;6.92;;;;;;;13.74;100.00;98752.75;1644466;86;20438;-70
2021/09/17 02:38:02;;;;;;;14.65;6.40;;;;;;;13.73;100.00;98749.69;1644836;85;21011;-70
2021/09/17 02:40:30;;;;;;;14.23;6.47;;;;;;;13.70;100.00;98749.73;1646225;86;21896;-70
2021/09/17 02:43:01;;;;;;;13.35;6.05;;;;;;;13.69;100.00;98750.64;1657307;85;21659;-70
2021/09/17 02:45:33;;;;;;;14.55;6.25;;;;;;;13.74;100.00;98752.75;1658146;85;21457;-70
2021/09/17 02:48:06;;;;;;;12.65;6.05;;;;;;;13.74;100.00;98750.10;1671057;85;21445;-67
2021/09/17 02:50:38;;;;;;;18.77;6.00;;;;;;;13.75;100.00;98751.84;1672806;85;20941;-73
2021/09/17 02:53:12;;;;;;;16.27;6.55;;;;;;;13.75;100.00;98747.87;1652109;85;21459;-75
2021/09/17 02:55:41;;;;;;;17.23;6.85;;;;;;;13.76;100.00;98747.41;1658525;85;20923;-67
2021/09/17 02:58:18;;;;;;;9.28;5.28;;;;;;;13.74;100.00;98752.75;1659342;85;21001;-66
2021/09/17 03:00:54;;;;;;;23.50;6.53;;;;;;;13.76;100.00;98740.33;1657981;85;20923;-70
2021/09/17 03:03:26;;;;;;;17.98;6.47;;;;;;;13.77;100.00;98733.25;1652490;85;21502;-71
2021/09/17 03:05:57;;;;;;;13.83;6.22;;;;;;;13.77;100.00;98742.07;1656352;85;21461;-74
2021/09/17 03:08:26;;;;;;;9.90;5.90;;;;;;;13.72;100.00;98733.37;1657879;85;21387;-75
2021/09/17 03:11:02;;;;;;;13.88;6.03;;;;;;;13.69;100.00;98732.09;1653222;85;21346;-77
2021/09/17 03:13:37;;;;;;;13.80;6.53;;;;;;;13.66;100.00;98734.81;1662902;85;21391;-77
2021/09/17 03:16:12;;;;;;;18.17;6.22;;;;;;;13.66;100.00;98732.62;1627824;86;21448;-75
2021/09/17 03:18:40;;;;;;;13.80;6.25;;;;;;;13.62;100.00;98730.50;1649124;85;21466;-71
2021/09/17 03:21:09;;;;;;;12.90;6.53;;;;;;;13.60;100.00;98735.42;1645633;85;20984;-66
2021/09/17 03:23:43;;;;;;;17.67;6.15;;;;;;;13.61;100.00;98732.73;1640167;85;20964;-75
2021/09/17 03:26:13;;;;;;;12.55;6.15;;;;;;;13.59;100.00;98729.25;1646024;85;21431;-75
2021/09/17 03:28:43;;;;;;;12.70;6.50;;;;;;;13.61;100.00;98731.86;1660520;83;20960;-76
2021/09/17 03:31:12;;;;;;;9.80;5.55;;;;;;;13.62;100.00;98731.83;1660635;85;20915;-68
2021/09/17 03:33:43;;;;;;;13.15;6.08;;;;;;;13.64;100.00;98737.96;1654790;85;21451;-74
2021/09/17 03:36:11;;;;;;;10.43;5.25;;;;;;;13.70;100.00;98743.11;1647221;85;21139;-73
2021/09/17 03:38:40;;;;;;;9.58;6.12;;;;;;;13.72;100.00;98737.80;1651313;85;20902;-74
2021/09/17 03:41:09;;;;;;;14.53;6.83;;;;;;;13.69;100.00;98729.89;1648774;85;20948;-75
2021/09/17 03:43:38;;;;;;;108.92;14.05;;;;;;;13.64;100.00;98735.77;1636672;85;20932;-69
2021/09/17 03:46:06;;;;;;;52.95;10.38;;;;;;;13.59;100.00;98727.93;1629903;86;21549;-65
2021/09/17 03:48:39;;;;;;;21.50;7.37;;;;;;;13.51;100.00;98727.25;1660823;85;21296;-72
2021/09/17 03:51:09;;;;;;;15.38;6.40;;;;;;;13.46;100.00;98734.44;1664260;85;20892;-77
2021/09/17 03:53:43;;;;;;;40.75;8.23;;;;;;;13.47;100.00;98728.23;1677989;85;20966;-76
2021/09/17 03:56:11;;;;;;;10.25;6.17;;;;;;;13.44;100.00;98727.86;1666888;85;20903;-76
2021/09/17 03:58:40;;;;;;;12.93;6.22;;;;;;;13.44;100.00;98728.31;1653732;86;20964;-76
2021/09/17 04:01:08;;;;;;;12.15;6.55;;;;;;;13.39;100.00;98720.47;1665850;85;21482;-75
2021/09/17 04:03:37;;;;;;;14.50;5.85;;;;;;;13.31;100.00;98715.81;1665124;85;20917;-77
2021/09/17 04:06:05;;;;;;;11.35;5.92;;;;;;;13.30;100.00;98719.83;1664938;85;21468;-76
2021/09/17 04:08:32;;;;;;;13.28;6.70;;;;;;;13.32;100.00;98721.98;1665983;85;20923;-77
2021/09/17 04:11:02;;;;;;;16.17;6.40;;;;;;;13.34;100.00;98728.11;1665237;85;20967;-77
2021/09/17 04:13:30;;;;;;;7.92;5.62;;;;;;;13.38;100.00;98720.05;1665823;85;21096;-75
2021/09/17 04:15:59;;;;;;;72.78;11.78;;;;;;;13.42;100.00;98720.85;1653837;86;20907;-75
2021/09/17 04:18:27;;;;;;;12.70;6.00;;;;;;;13.41;100.00;98707.19;1655179;85;20971;-75
2021/09/17 04:20:57;;;;;;;13.50;6.37;;;;;;;13.50;100.00;98716.23;1655760;86;21411;-75
2021/09/17 04:23:25;;;;;;;12.00;6.20;;;;;;;13.58;100.00;98712.06;1665396;85;21007;-75
2021/09/17 04:25:52;;;;;;;12.43;6.72;;;;;;;13.65;100.00;98707.89;1664901;84;21098;-76
2021/09/17 04:28:19;;;;;;;13.88;5.75;;;;;;;13.70;100.00;98706.00;1664414;85;20924;-75
2021/09/17 04:30:47;;;;;;;7.58;5.25;;;;;;;13.73;100.00;98707.27;1654349;86;21406;-77
2021/09/17 04:33:16;;;;;;;13.50;5.12;;;;;;;13.75;100.00;98712.08;1661388;84;21010;-76
2021/09/17 04:35:45;;;;;;;16.75;6.70;;;;;;;13.84;100.00;98704.34;1664597;84;20955;-74
2021/09/17 04:38:14;;;;;;;8.40;5.53;;;;;;;13.90;100.00;98708.16;1664179;84;21104;-75
2021/09/17 04:40:42;;;;;;;16.12;7.25;;;;;;;13.93;100.00;98708.53;1664259;85;20915;-76
2021/09/17 04:43:11;;;;;;;10.13;5.92;;;;;;;13.95;100.00;98703.60;1664557;84;20992;-76
2021/09/17 04:45:38;;;;;;;12.37;5.12;;;;;;;14.01;100.00;98705.22;1633179;85;21438;-75
2021/09/17 04:48:14;;;;;;;9.68;4.95;;;;;;;14.09;100.00;98713.37;1659970;84;20976;-75
2021/09/17 04:50:43;;;;;;;19.42;6.65;;;;;;;14.13;100.00;98711.06;1632769;85;21107;-75
2021/09/17 04:53:12;;;;;;;15.88;5.70;;;;;;;14.16;100.00;98708.32;1655231;84;20955;-75
2021/09/17 04:55:40;;;;;;;10.38;5.00;;;;;;;14.18;100.00;98701.19;1639083;86;20928;-78
2021/09/17 04:58:08;;;;;;;8.75;4.90;;;;;;;14.22;100.00;98698.03;1622249;88;21035;-75
2021/09/17 05:00:37;;;;;;;12.07;5.75;;;;;;;14.27;100.00;98696.57;1655025;84;20938;-75
2021/09/17 05:03:05;;;;;;;11.55;5.70;;;;;;;14.28;100.00;98693.00;1652445;86;21105;-74
2021/09/17 05:05:33;;;;;;;45.55;7.62;;;;;;;14.31;100.00;98696.90;1653657;84;20953;-74
2021/09/17 05:08:03;;;;;;;33.25;7.05;;;;;;;14.31;100.00;98693.78;1640592;86;21419;-75
2021/09/17 05:10:31;;;;;;;16.07;5.40;;;;;;;14.33;100.00;98691.09;1636758;85;20939;-74
2021/09/17 05:12:59;;;;;;;13.08;5.35;;;;;;;14.35;100.00;98691.91;1656307;85;20963;-75
2021/09/17 05:15:27;;;;;;;12.05;5.25;;;;;;;14.38;100.00;98694.02;1656487;85;21788;-75
2021/09/17 05:17:55;;;;;;;18.98;6.35;;;;;;;14.40;100.00;98698.83;1656137;85;20907;-74
2021/09/17 05:20:23;;;;;;;11.38;4.80;;;;;;;14.41;100.00;98700.57;1656447;85;20955;-74
2021/09/17 05:22:55;;;;;;;13.00;4.70;;;;;;;14.45;100.00;98702.25;1656197;85;20868;-75
2021/09/17 05:25:23;;;;;;;7.72;4.75;;;;;;;14.53;100.00;98696.72;1656220;86;20927;-75
2021/09/17 05:27:53;;;;;;;11.48;4.92;;;;;;;14.59;100.00;98690.36;1656367;86;21435;-75
2021/09/17 05:30:21;;;;;;;11.20;4.80;;;;;;;14.66;100.00;98696.80;1656391;85;20951;-75
2021/09/17 05:32:50;;;;;;;26.80;5.55;;;;;;;14.73;100.00;98702.34;1656521;85;20994;-75
2021/09/17 05:35:19;;;;;;;39.45;6.60;;;;;;;14.82;100.00;98701.19;1657735;86;20935;-74
2021/09/17 05:37:47;;;;;;;15.70;4.28;;;;;;;14.96;100.00;98702.97;1657805;85;20978;-75
2021/09/17 05:40:15;;;;;;;37.42;7.25;;;;;;;15.09;100.00;98703.45;1656914;85;21064;-75
2021/09/17 05:42:43;;;;;;;10.05;4.00;;;;;;;15.23;100.00;98704.38;1656735;85;20967;-74
2021/09/17 05:45:11;;;;;;;8.15;3.75;;;;;;;15.34;100.00;98696.92;1627290;85;21028;-74
2021/09/17 05:47:41;;;;;;;7.15;4.15;;;;;;;15.46;100.00;98685.02;1656554;85;21422;-74
2021/09/17 05:50:09;;;;;;;17.77;4.80;;;;;;;15.59;100.00;98690.37;1638445;86;20965;-76
2021/09/17 05:52:37;;;;;;;8.03;3.98;;;;;;;15.69;100.00;98687.38;1657403;85;21071;-75
2021/09/17 05:55:06;;;;;;;12.75;4.67;;;;;;;15.77;100.00;98687.11;1657285;85;20885;-73
2021/09/17 05:57:34;;;;;;;7.45;3.98;;;;;;;15.86;100.00;98697.89;1657816;85;20900;-74
2021/09/17 06:00:05;;;;;;;12.05;4.03;;;;;;;15.94;100.00;98687.39;1657512;85;20892;-74
2021/09/17 06:02:34;;;;;;;6.92;4.08;;;;;;;16.04;100.00;98675.50;1658913;84;21531;-74
2021/09/17 06:05:04;;;;;;;11.00;4.20;;;;;;;16.13;100.00;98680.12;1658229;85;21109;-74
2021/09/17 06:07:33;;;;;;;7.03;3.65;;;;;;;16.22;100.00;98677.13;1632797;85;21360;-74
2021/09/17 06:10:04;;;;;;;6.97;4.10;;;;;;;16.30;100.00;98675.92;1658018;84;20995;-73
2021/09/17 06:12:32;;;;;;;5.83;3.83;;;;;;;16.38;100.00;98665.86;1657179;85;20928;-74
2021/09/17 06:14:59;;;;;;;8.08;3.98;;;;;;;16.49;100.00;98677.44;1657723;85;20947;-73
2021/09/17 06:17:28;;;;;;;19.40;4.42;;;;;;;16.60;100.00;98668.61;1657615;85;20888;-74
2021/09/17 06:19:55;;;;;;;11.00;3.80;;;;;;;16.70;100.00;98669.16;1657270;85;20972;-74
2021/09/17 06:22:23;;;;;;;6.17;3.75;;;;;;;16.84;100.00;98666.82;1656366;86;21539;-74
2021/09/17 06:24:52;;;;;;;21.30;5.40;;;;;;;16.84;100.00;98666.82;1647630;85;20951;-74
2021/09/17 06:27:20;;;;;;;22.67;5.08;;;;;;;16.96;100.00;98659.68;1650330;85;20938;-75
2021/09/17 06:29:48;;;;;;;11.90;3.95;;;;;;;16.96;100.00;98659.68;1654823;85;21102;-74
2021/09/17 06:32:16;;;;;;;9.48;3.77;;;;;;;16.99;100.00;98652.89;1656738;85;20941;-74
2021/09/17 06:34:50;;;;;;;7.53;3.77;;;;;;;17.02;100.00;98657.23;1656212;85;20905;-73
2021/09/17 06:37:16;;;;;;;8.15;3.80;;;;;;;17.06;100.00;98656.68;1654951;85;20953;-74
2021/09/17 06:39:43;;;;;;;22.25;4.67;;;;;;;17.10;100.00;98647.17;1656382;85;21461;-74
2021/09/17 06:42:10;;;;;;;7.12;3.90;;;;;;;17.13;100.00;98643.51;1655983;85;21974;-73
2021/09/17 06:44:40;;;;;;;9.83;4.10;;;;;;;17.12;100.00;98655.97;1649045;85;20987;-75
2021/09/17 06:47:08;;;;;;;8.45;3.80;;;;;;;17.15;100.00;98642.52;1636139;86;21490;-74
2021/09/17 06:49:37;;;;;;;18.30;4.33;;;;;;;17.15;100.00;98642.52;1647669;85;21059;-75
2021/09/17 06:52:06;;;;;;;16.85;4.10;;;;;;;17.17;100.00;98646.45;1617600;86;21470;-74
2021/09/17 06:54:35;;;;;;;95.80;10.25;;;;;;;17.18;100.00;98642.39;1644054;85;21827;-75
2021/09/17 06:57:02;;;;;;;13.70;4.42;;;;;;;17.16;100.00;98637.59;1624525;87;20916;-75
2021/09/17 06:59:29;;;;;;;28.52;6.10;;;;;;;17.16;100.00;98637.59;1617958;86;21459;-75
2021/09/17 07:01:58;;;;;;;13.18;3.95;;;;;;;17.15;100.00;98634.52;1643179;85;20937;-74
2021/09/17 07:04:25;;;;;;;7.60;4.30;;;;;;;17.19;100.00;98637.47;1643363;86;21009;-75
2021/09/17 07:06:54;;;;;;;12.15;4.20;;;;;;;17.21;100.00;98632.94;1644111;86;21151;-75
2021/09/17 07:09:24;;;;;;;7.58;4.30;;;;;;;17.22;100.00;98635.14;1635721;85;20931;-74
2021/09/17 07:11:52;;;;;;;8.30;4.30;;;;;;;17.24;100.00;98635.48;1637845;87;20992;-75
2021/09/17 07:14:21;;;;;;;6.95;4.35;;;;;;;17.26;100.00;98628.75;1643618;85;21447;-75
2021/09/17 07:16:49;;;;;;;11.45;4.47;;;;;;;17.28;100.00;98634.42;1643056;85;20913;-75
2021/09/17 07:19:18;;;;;;;7.78;4.40;;;;;;;17.31;100.00;98636.09;1621758;86;21164;-75
2021/09/17 07:21:46;;;;;;;8.80;4.50;;;;;;;17.31;100.00;98634.29;1637938;86;20900;-76
2021/09/17 07:24:13;;;;;;;17.12;4.78;;;;;;;17.34;100.00;98632.43;1638016;85;20959;-75
2021/09/17 07:26:42;;;;;;;6.60;3.75;;;;;;;17.36;100.00;98631.44;1643507;85;20994;-75
2021/09/17 07:29:10;;;;;;;5.60;4.28;;;;;;;17.42;100.00;98628.51;1632392;88;21480;-73
2021/09/17 07:31:37;;;;;;;9.28;4.47;;;;;;;17.48;100.00;98634.05;1632272;88;21137;-74
2021/09/17 07:34:05;;;;;;;10.45;4.22;;;;;;;17.51;100.00;98629.48;1632143;88;20929;-73
2021/09/17 07:36:34;;;;;;;7.25;3.92;;;;;;;17.56;100.00;98625.29;1632446;87;20965;-74
2021/09/17 07:39:02;;;;;;;5.50;3.98;;;;;;;17.63;100.00;98627.63;1632161;88;20921;-73
2021/09/17 07:41:31;;;;;;;9.13;4.60;;;;;;;17.71;100.00;98623.80;1632166;87;20941;-73
2021/09/17 07:43:59;;;;;;;12.63;4.45;;;;;;;17.77;100.00;98620.39;1638269;86;21073;-72
2021/09/17 07:46:28;;;;;;;6.67;4.22;;;;;;;17.84;100.00;98623.19;1643868;86;20940;-74
2021/09/17 07:48:55;;;;;;;10.93;4.10;;;;;;;17.93;100.00;98619.25;1644269;86;20932;-74
2021/09/17 07:51:23;;;;;;;14.33;4.25;;;;;;;17.99;100.00;98611.47;1644405;86;20968;-73
2021/09/17 07:53:52;;;;;;;5.10;4.05;;;;;;;18.03;100.00;98609.94;1644655;86;20971;-73
2021/09/17 07:56:20;;;;;;;7.55;3.90;;;;;;;18.09;100.00;98603.45;1644677;86;21174;-73
2021/09/17 07:58:47;;;;;;;10.55;4.72;;;;;;;18.08;100.00;98597.71;1644332;86;21008;-74
2021/09/17 08:01:14;;;;;;;11.83;4.87;;;;;;;18.09;100.00;98602.98;1644081;86;21015;-74
2021/09/17 08:03:42;;;;;;;8.60;4.30;;;;;;;18.09;100.00;98604.78;1645251;85;20889;-74
2021/09/17 08:06:10;;;;;;;9.35;4.50;;;;;;;18.11;100.00;98602.91;1649765;85;20937;-75
2021/09/17 08:08:40;;;;;;;10.30;4.87;;;;;;;18.15;100.00;98609.84;1649216;85;21048;-75
2021/09/17 08:11:07;;;;;;;7.75;4.45;;;;;;;18.13;100.00;98605.05;1647694;86;20985;-75
2021/09/17 08:13:35;;;;;;;8.65;4.35;;;;;;;18.15;100.00;98601.84;1632847;86;20972;-75
2021/09/17 08:16:04;;;;;;;9.70;4.05;;;;;;;18.17;100.00;98591.48;1642100;86;20926;-74
2021/09/17 08:18:33;;;;;;;8.65;4.65;;;;;;;18.21;100.00;98594.41;1645628;87;20953;-75
2021/09/17 08:21:01;;;;;;;6.83;4.00;;;;;;;18.29;100.00;98586.52;1648556;86;21066;-75
2021/09/17 08:23:28;;;;;;;8.83;4.50;;;;;;;18.35;100.00;98588.44;1646962;86;20942;-75
2021/09/17 08:25:56;;;;;;;6.22;3.98;;;;;;;18.42;100.00;98586.34;1648982;86;21033;-74
2021/09/17 08:28:26;;;;;;;8.20;4.22;;;;;;;18.51;100.00;98584.14;1648137;86;20934;-75
2021/09/17 08:30:55;;;;;;;16.05;4.50;;;;;;;18.61;100.00;98578.36;1639057;86;21445;-75
2021/09/17 08:33:23;;;;;;;6.55;4.37;;;;;;;18.69;100.00;98573.08;1648370;86;21171;-74
2021/09/17 08:35:52;;;;;;;7.70;4.55;;;;;;;18.81;100.00;98568.95;1644080;87;20993;-77
2021/09/17 08:38:19;;;;;;;9.45;4.20;;;;;;;18.93;100.00;98562.17;1647890;85;21046;-74
2021/09/17 08:40:47;;;;;;;11.68;4.67;;;;;;;19.03;100.00;98560.77;1646994;86;21457;-74
2021/09/17 08:43:15;;;;;;;8.05;5.08;;;;;;;19.13;100.00;98562.04;1629834;86;20926;-74
2021/09/17 08:45:43;;;;;;;10.88;4.67;;;;;;;19.23;100.00;98555.29;1651430;85;21061;-74
2021/09/17 08:48:12;;;;;;;9.75;5.05;;;;;;;19.34;100.00;98563.62;1660951;84;20935;-75
2021/09/17 08:50:40;;;;;;;9.73;4.55;;;;;;;19.45;100.00;98554.61;1663238;84;20919;-75
2021/09/17 08:53:08;;;;;;;8.60;4.53;;;;;;;19.55;100.00;98551.02;1662782;86;21455;-75
2021/09/17 08:55:36;;;;;;;12.15;4.55;;;;;;;19.62;100.00;98552.44;1662881;86;20927;-75
2021/09/17 08:58:05;;;;;;;8.48;4.78;;;;;;;19.66;100.00;98544.64;1650910;86;39026;-77
2021/09/17 09:00:36;;;;;;;8.75;4.42;;;;;;;19.74;100.00;98546.44;1662786;86;20852;-75
2021/09/17 09:03:03;;;;;;;10.63;4.58;;;;;;;19.79;100.00;98540.37;1663335;86;20923;-74
2021/09/17 09:05:33;;;;;;;15.65;5.08;;;;;;;19.85;100.00;98528.94;1651034;87;20959;-75
2021/09/17 09:08:01;;;;;;;10.72;4.70;;;;;;;19.90;100.00;98518.41;1662911;86;21454;-74
2021/09/17 09:10:29;;;;;;;7.37;4.58;;;;;;;19.99;100.00;98529.96;1651732;86;21924;-75
2021/09/17 09:13:01;;;;;;;22.40;5.10;;;;;;;20.05;100.00;98520.26;1639629;86;20907;-75
2021/09/17 09:15:30;;;;;;;8.98;5.28;;;;;;;20.15;100.00;98523.77;1622285;88;21447;-73
2021/09/17 09:18:04;;;;;;;7.72;4.83;;;;;;;20.26;100.00;98513.33;1630547;86;20935;-74
2021/09/17 09:20:48;;;;;;;9.35;4.80;;;;;;;20.40;100.00;98521.52;1646905;86;20916;-74
2021/09/17 09:23:20;;;;;;;9.05;5.40;;;;;;;20.57;100.00;98516.55;1664808;84;21489;-75
2021/09/17 09:26:07;;;;;;;97.30;9.78;;;;;;;20.70;100.00;98523.80;1666668;85;20915;-75
2021/09/17 09:28:42;;;;;;;7.55;5.10;;;;;;;20.75;100.00;98514.16;1666780;85;20895;-76
2021/09/17 09:31:14;;;;;;;9.05;4.90;;;;;;;20.72;100.00;98513.00;1667092;86;21402;-68
2021/09/17 09:33:48;;;;;;;12.60;4.78;;;;;;;20.71;100.00;98506.77;1666475;86;21031;-75
2021/09/17 09:36:20;;;;;;;8.83;5.30;;;;;;;20.72;100.00;98508.98;1667043;86;21081;-75
2021/09/17 09:38:52;;;;;;;7.45;4.90;;;;;;;20.66;100.00;98510.67;1666493;85;20966;-75
2021/09/17 09:41:25;;;;;;;10.85;4.35;;;;;;;20.62;100.00;98515.81;1666514;86;21015;-75
2021/09/17 09:43:59;;;;;;;14.05;5.03;;;;;;;20.60;100.00;98511.02;1666453;85;20930;-73
2021/09/17 09:46:34;;;;;;;10.03;4.75;;;;;;;20.61;100.00;98516.77;1659541;85;21432;-73
2021/09/17 09:49:22;;;;;;;14.93;4.65;;;;;;;20.59;100.00;98506.61;1657452;85;21123;-74
2021/09/17 09:52:08;;;;;;;13.15;4.70;;;;;;;20.57;100.00;98506.70;1657544;85;20885;-74
2021/09/17 09:54:37;;;;;;;11.25;4.60;;;;;;;20.55;100.00;98502.38;1657401;85;20888;-75
2021/09/17 09:57:05;;;;;;;6.72;4.75;;;;;;;20.50;100.00;98509.34;1657272;85;20931;-74
2021/09/17 09:59:34;;;;;;;10.28;4.75;;;;;;;20.48;100.00;98494.30;1657340;85;20932;-74
2021/09/17 10:02:03;;;;;;;8.18;4.12;;;;;;;20.45;100.00;98489.12;1656749;85;21464;-75
2021/09/17 10:04:32;;;;;;;19.62;5.40;;;;;;;20.47;100.00;98500.61;1653172;85;20902;-74
2021/09/17 10:07:03;;;;;;;7.35;4.80;;;;;;;20.45;100.00;98487.30;1652898;85;21074;-75
2021/09/17 10:09:32;;;;;;;13.58;4.40;;;;;;;20.43;100.00;98493.22;1651922;87;20932;-74
2021/09/17 10:11:59;;;;;;;7.72;4.85;;;;;;;20.38;100.00;98493.45;1652105;86;21002;-74
2021/09/17 10:14:28;;;;;;;5.42;3.95;;;;;;;20.35;100.00;98498.98;1650904;87;21120;-74
2021/09/17 10:16:56;;;;;;;7.12;4.80;;;;;;;20.35;100.00;98485.59;1652992;84;20912;-75
2021/09/17 10:19:24;;;;;;;8.55;4.45;;;;;;;20.37;100.00;98486.84;1654777;85;20916;-76
2021/09/17 10:22:01;;;;;;;9.58;3.90;;;;;;;20.40;100.00;98484.02;1657425;85;20928;-75
2021/09/17 10:24:33;;;;;;;5.92;3.87;;;;;;;20.45;100.00;98485.97;1657680;85;20987;-74
2021/09/17 10:27:12;;;;;;;6.87;4.53;;;;;;;20.51;100.00;98486.95;1657409;85;21408;-75
2021/09/17 10:29:42;;;;;;;8.25;4.35;;;;;;;20.57;100.00;98480.38;1657410;85;21463;-74
2021/09/17 10:32:34;;;;;;;8.33;4.40;;;;;;;20.64;100.00;98473.72;1657763;85;20853;-74
2021/09/17 10:35:12;;;;;;;8.30;4.58;;;;;;;20.67;100.00;98475.74;1657570;85;21507;-75
2021/09/17 10:38:03;;;;;;;7.22;4.30;;;;;;;20.69;100.00;98473.84;1658024;85;20860;-74
2021/09/17 10:40:42;;;;;;;7.13;4.57;;;;;;;20.74;100.00;98476.25;1656445;85;21096;-74
2021/09/17 10:43:15;;;;;;;8.33;4.40;;;;;;;20.79;100.00;98475.51;1657994;85;20881;-74
2021/09/17 10:45:52;;;;;;;13.63;4.80;;;;;;;20.83;100.00;98470.39;1660613;85;20936;-75
2021/09/17 10:48:28;;;;;;;11.33;4.58;;;;;;;20.86;100.00;98464.84;1665427;85;21606;-75
2021/09/17 10:50:59;;;;;;;6.80;4.50;;;;;;;20.85;100.00;98460.91;1667308;84;20963;-74
2021/09/17 10:53:48;;;;;;;14.43;4.80;;;;;;;20.84;100.00;98453.83;1666380;84;21349;-74
2021/09/17 10:56:16;;;;;;;7.53;4.28;;;;;;;20.83;100.00;98455.64;1666987;83;20971;-74
2021/09/17 10:58:45;;;;;;;8.83;4.92;;;;;;;20.86;100.00;98451.92;1668893;84;21020;-74
2021/09/17 11:01:15;;;;;;;10.30;4.83;;;;;;;20.91;100.00;98453.84;1666764;85;21450;-74
2021/09/17 11:03:56;;;;;;;10.63;4.85;;;;;;;20.93;100.00;98442.08;1667423;85;21371;-74
2021/09/17 11:06:29;;;;;;;67.55;10.08;;;;;;;20.96;100.00;98438.36;1667193;85;21109;-75
2021/09/17 11:09:04;;;;;;;11.12;5.55;;;;;;;21.00;100.00;98443.44;1666831;85;20876;-75
2021/09/17 11:11:42;;;;;;;9.55;5.45;;;;;;;21.02;100.00;98436.17;1666853;85;20951;-75
2021/09/17 11:14:19;;;;;;;12.05;5.70;;;;;;;21.02;100.00;98440.19;1667126;85;20895;-75
2021/09/17 11:16:49;;;;;;;15.32;5.85;;;;;;;21.00;100.00;98438.56;1666364;85;21435;-76
2021/09/17 11:19:17;;;;;;;11.43;6.47;;;;;;;20.98;100.00;98425.24;1667228;85;21119;-75
2021/09/17 11:21:50;;;;;;;15.68;6.60;;;;;;;21.01;100.00;98440.28;1668562;85;20960;-75
2021/09/17 11:24:28;;;;;;;12.68;6.12;;;;;;;21.01;100.00;98434.92;1667320;85;21437;-74
2021/09/17 11:26:55;;;;;;;8.48;6.28;;;;;;;21.01;100.00;98424.20;1665858;85;20907;-75
2021/09/17 11:29:25;;;;;;;13.50;5.90;;;;;;;21.04;100.00;98417.30;1665918;84;20919;-74
2021/09/17 11:31:59;;;;;;;10.55;6.45;;;;;;;21.07;100.00;98417.13;1654382;85;21124;-74